Time;durP1;ratioP1;P1;durP2;ratioP2;P2;SDS_P1;SDS_P2;PMS_P1;PMS_P2;Temp;Humidity;BMP_temperature;BMP_pressure;BME280_temperature;BME280_humidity;BME280_pressure;Samples;Min_cycle;Max_cycle;Signal;HPM_P1;HPM_P2
2020/12/06 00:01:00;;;;;;;5.87;5.37;;;11.50;62.50;;;;;;5074273;28;20529;-61
2020/12/06 00:03:27;;;;;;;6.70;5.93;;;11.60;62.70;;;;;;5074834;28;20467;-59
2020/12/06 00:05:55;;;;;;;7.80;6.30;;;11.50;62.70;;;;;;5069515;28;20481;-59
2020/12/06 00:08:22;;;;;;;8.17;6.60;;;11.60;62.60;;;;;;5074955;28;20476;-59
2020/12/06 00:10:48;;;;;;;8.33;6.33;;;11.60;62.70;;;;;;5073514;28;20513;-59
2020/12/06 00:13:15;;;;;;;9.67;6.10;;;11.60;62.40;;;;;;5074481;28;20433;-59
2020/12/06 00:15:42;;;;;;;6.50;5.90;;;11.60;62.40;;;;;;5074302;28;20512;-60
2020/12/06 00:18:09;;;;;;;6.17;5.57;;;11.60;62.60;;;;;;5074493;28;20501;-59
2020/12/06 00:20:35;;;;;;;6.53;5.93;;;11.50;62.60;;;;;;5073738;28;20521;-60
2020/12/06 00:23:04;;;;;;;7.23;5.40;;;11.60;62.60;;;;;;5074632;28;20434;-60
2020/12/06 00:25:30;;;;;;;6.67;5.80;;;11.50;62.70;;;;;;5074594;28;20555;-60
2020/12/06 00:27:57;;;;;;;6.83;5.90;;;11.50;62.80;;;;;;5074652;28;20465;-61
2020/12/06 00:30:24;;;;;;;6.80;5.50;;;11.50;62.80;;;;;;5074060;28;20501;-60
2020/12/06 00:32:51;;;;;;;8.43;6.23;;;11.40;62.80;;;;;;5074082;28;20469;-61
2020/12/06 00:35:18;;;;;;;7.60;5.83;;;11.40;62.70;;;;;;5074705;28;20492;-60
2020/12/06 00:37:44;;;;;;;8.00;6.30;;;11.40;62.70;;;;;;5073927;28;20473;-59
2020/12/06 00:40:12;;;;;;;6.70;5.90;;;11.50;62.60;;;;;;5073445;28;20437;-60
2020/12/06 00:42:39;;;;;;;5.97;5.33;;;11.50;62.60;;;;;;5074065;28;20438;-61
2020/12/06 00:45:06;;;;;;;7.53;5.90;;;11.40;62.60;;;;;;5073895;28;20481;-61
2020/12/06 00:47:36;;;;;;;8.20;6.47;;;11.40;62.80;;;;;;5073849;28;20491;-60
2020/12/06 00:50:03;;;;;;;9.17;6.10;;;11.40;62.60;;;;;;5073896;28;20466;-58
2020/12/06 00:52:30;;;;;;;6.30;5.43;;;11.40;62.70;;;;;;5072254;28;20536;-60
2020/12/06 00:54:57;;;;;;;6.13;5.53;;;11.40;62.80;;;;;;5072273;28;20448;-60
2020/12/06 00:57:25;;;;;;;7.00;5.70;;;11.40;62.90;;;;;;5073442;28;20438;-61
2020/12/06 00:59:51;;;;;;;6.13;5.50;;;11.30;62.90;;;;;;5063946;28;20530;-59
2020/12/06 01:02:18;;;;;;;6.37;5.77;;;11.40;63.00;;;;;;5062270;28;20632;-60
2020/12/06 01:04:45;;;;;;;5.90;5.30;;;11.30;63.00;;;;;;5059403;28;20503;-59
2020/12/06 01:07:12;;;;;;;6.10;5.50;;;11.40;63.00;;;;;;5062139;28;20480;-61
2020/12/06 01:09:39;;;;;;;6.30;5.70;;;11.40;63.00;;;;;;5063502;28;20466;-61
2020/12/06 01:12:06;;;;;;;6.70;6.00;;;11.30;63.00;;;;;;5063421;28;20448;-58
2020/12/06 01:14:33;;;;;;;6.83;5.80;;;11.30;63.20;;;;;;5060831;28;20525;-60
2020/12/06 01:17:01;;;;;;;5.37;4.87;;;11.30;63.40;;;;;;5063792;28;20462;-61
2020/12/06 01:19:28;;;;;;;5.50;5.00;;;11.30;63.30;;;;;;5062944;28;20433;-61
2020/12/06 01:21:55;;;;;;;5.80;5.13;;;11.30;63.10;;;;;;5063037;28;20498;-60
2020/12/06 01:24:21;;;;;;;6.40;5.67;;;11.40;63.00;;;;;;5064260;28;20466;-58
2020/12/06 01:26:48;;;;;;;7.83;6.00;;;11.40;63.10;;;;;;5062397;28;20528;-61
2020/12/06 01:29:15;;;;;;;5.93;5.00;;;11.40;63.10;;;;;;5063356;28;20476;-59
2020/12/06 01:31:46;;;;;;;7.33;5.77;;;11.40;62.90;;;;;;5063757;28;20494;-61
2020/12/06 01:34:12;;;;;;;6.40;5.63;;;11.30;63.10;;;;;;5061800;28;20516;-60
2020/12/06 01:36:39;;;;;;;5.60;5.00;;;11.40;63.20;;;;;;5064657;28;20438;-59
2020/12/06 01:39:06;;;;;;;6.03;5.43;;;11.40;62.90;;;;;;5062514;28;20466;-62
2020/12/06 01:41:33;;;;;;;5.63;5.13;;;11.50;62.80;;;;;;5060826;28;20542;-60
2020/12/06 01:44:00;;;;;;;6.13;5.53;;;11.50;62.50;;;;;;5061286;28;20469;-60
2020/12/06 01:46:27;;;;;;;7.00;6.00;;;11.50;62.60;;;;;;5063604;28;20450;-60
2020/12/06 01:48:54;;;;;;;6.67;5.53;;;11.40;62.70;;;;;;5063334;28;20461;-61
2020/12/06 01:51:22;;;;;;;5.67;5.17;;;11.40;62.80;;;;;;5066517;28;20520;-60
2020/12/06 01:53:49;;;;;;;5.80;5.20;;;11.30;62.80;;;;;;5066153;28;20422;-61
2020/12/06 01:56:16;;;;;;;5.93;5.30;;;11.30;63.00;;;;;;5062160;28;20469;-60
2020/12/06 01:58:43;;;;;;;5.80;5.30;;;11.30;63.10;;;;;;5068160;28;20430;-60
2020/12/06 02:01:10;;;;;;;5.77;4.93;;;11.30;63.10;;;;;;5065188;28;20538;-60
2020/12/06 02:03:37;;;;;;;5.83;5.30;;;11.30;63.30;;;;;;5067003;28;20444;-61
2020/12/06 02:06:05;;;;;;;6.10;5.37;;;11.30;63.30;;;;;;5059207;28;20513;-60
2020/12/06 02:08:32;;;;;;;5.90;5.30;;;11.30;63.30;;;;;;5066579;28;20477;-60
2020/12/06 02:10:58;;;;;;;5.70;5.20;;;11.30;63.20;;;;;;5064092;28;20517;-60
2020/12/06 02:13:25;;;;;;;6.17;5.57;;;11.30;63.30;;;;;;5056981;28;20430;-59
2020/12/06 02:15:54;;;;;;;5.67;5.17;;;11.30;63.40;;;;;;5069435;28;20525;-58
2020/12/06 02:18:21;;;;;;;5.70;5.20;;;11.20;63.50;;;;;;5076861;28;20477;-60
2020/12/06 02:20:48;;;;;;;5.90;5.40;;;11.30;63.40;;;;;;5076491;28;20454;-59
2020/12/06 02:23:15;;;;;;;5.83;5.33;;;11.30;63.40;;;;;;5077260;28;20566;-61
2020/12/06 02:25:42;;;;;;;5.37;4.90;;;11.20;63.70;;;;;;5076320;28;20473;-59
2020/12/06 02:28:09;;;;;;;5.00;4.50;;;11.20;63.60;;;;;;5076754;28;20434;-58
2020/12/06 02:30:36;;;;;;;5.60;5.10;;;11.20;63.60;;;;;;5075773;28;20553;-62
2020/12/06 02:33:04;;;;;;;5.63;5.13;;;11.20;63.80;;;;;;5073791;28;20517;-59
2020/12/06 02:35:30;;;;;;;5.60;5.03;;;11.20;63.90;;;;;;5076642;28;20467;-60
2020/12/06 02:37:58;;;;;;;5.30;4.80;;;11.20;63.90;;;;;;5076850;28;20465;-61
2020/12/06 02:40:25;;;;;;;4.90;4.43;;;11.20;64.00;;;;;;5075924;28;20468;-59
2020/12/06 02:42:53;;;;;;;5.20;4.73;;;11.10;64.10;;;;;;5076483;28;20501;-61
2020/12/06 02:45:19;;;;;;;5.50;4.90;;;11.20;64.10;;;;;;5076120;28;20509;-59
2020/12/06 02:47:46;;;;;;;5.50;5.00;;;11.20;64.00;;;;;;5076210;28;20505;-61
2020/12/06 02:50:13;;;;;;;6.53;5.00;;;11.20;63.90;;;;;;5075923;28;20438;-60
2020/12/06 02:52:40;;;;;;;5.73;5.27;;;11.20;63.90;;;;;;5076568;28;20449;-61
2020/12/06 02:55:08;;;;;;;5.73;5.13;;;11.30;63.90;;;;;;5076124;28;20434;-59
2020/12/06 02:57:34;;;;;;;6.10;5.20;;;11.30;63.80;;;;;;5076178;28;20448;-60
2020/12/06 03:00:01;;;;;;;5.93;5.17;;;11.30;63.80;;;;;;5074716;28;20501;-61
2020/12/06 03:02:28;;;;;;;5.93;5.17;;;11.30;63.80;;;;;;5076261;28;20437;-59
2020/12/06 03:04:55;;;;;;;5.80;5.30;;;11.30;63.50;;;;;;5076221;28;20573;-60
2020/12/06 03:07:22;;;;;;;6.90;5.47;;;11.30;63.40;;;;;;5076169;28;20441;-61
2020/12/06 03:09:49;;;;;;;8.07;5.37;;;11.30;63.80;;;;;;5075467;28;20529;-61
2020/12/06 03:12:16;;;;;;;6.57;5.87;;;11.20;63.90;;;;;;5075899;28;20572;-60
2020/12/06 03:14:43;;;;;;;5.70;5.20;;;11.20;64.10;;;;;;5075754;28;20433;-59
2020/12/06 03:17:10;;;;;;;5.77;5.10;;;11.20;64.00;;;;;;5075741;28;20445;-60
2020/12/06 03:19:37;;;;;;;5.10;4.70;;;11.20;63.90;;;;;;5075312;28;20525;-62
2020/12/06 03:22:04;;;;;;;5.37;4.87;;;11.20;64.10;;;;;;5075706;28;20453;-61
2020/12/06 03:24:30;;;;;;;5.93;5.03;;;11.20;64.10;;;;;;5067782;28;20553;-60
2020/12/06 03:26:57;;;;;;;5.40;4.90;;;11.20;64.10;;;;;;5065244;28;20434;-60
2020/12/06 03:29:25;;;;;;;5.00;4.60;;;11.20;64.10;;;;;;5062929;28;20440;-62
2020/12/06 03:31:52;;;;;;;7.83;5.07;;;11.20;64.30;;;;;;5062548;28;20435;-62
2020/12/06 03:34:19;;;;;;;5.30;4.90;;;11.20;64.30;;;;;;5072532;28;20448;-61
2020/12/06 03:36:45;;;;;;;5.30;4.80;;;11.20;64.50;;;;;;5075747;28;20524;-60
2020/12/06 03:39:15;;;;;;;5.27;4.77;;;11.20;64.50;;;;;;5075717;28;20434;-61
2020/12/06 03:41:44;;;;;;;6.00;5.40;;;11.20;64.40;;;;;;5075119;28;20499;-61
2020/12/06 03:44:11;;;;;;;5.77;5.00;;;11.20;64.30;;;;;;5075220;28;20476;-59
2020/12/06 03:46:38;;;;;;;5.70;4.80;;;11.20;64.30;;;;;;5066392;28;20541;-58
2020/12/06 03:49:05;;;;;;;5.83;5.23;;;11.20;64.30;;;;;;5063226;28;20458;-58
2020/12/06 03:51:32;;;;;;;6.00;5.50;;;11.20;64.40;;;;;;5064432;28;20533;-59
2020/12/06 03:53:59;;;;;;;5.30;4.80;;;11.20;64.40;;;;;;5067358;28;20461;-58
2020/12/06 03:56:25;;;;;;;5.97;5.43;;;11.20;64.20;;;;;;5075344;28;20448;-59
2020/12/06 03:58:52;;;;;;;6.00;5.47;;;11.10;64.30;;;;;;5075331;28;20529;-52
2020/12/06 04:01:19;;;;;;;5.60;5.10;;;11.20;64.30;;;;;;5074958;28;20469;-59
2020/12/06 04:03:47;;;;;;;7.20;5.47;;;11.20;64.20;;;;;;5070033;28;20499;-59
2020/12/06 04:06:13;;;;;;;5.53;5.03;;;11.20;64.30;;;;;;5072113;28;20564;-59
2020/12/06 04:08:40;;;;;;;5.77;4.80;;;11.30;64.20;;;;;;5068001;28;20470;-57
2020/12/06 04:11:07;;;;;;;5.40;4.93;;;11.30;64.10;;;;;;5062464;28;20449;-58
2020/12/06 04:13:34;;;;;;;5.73;5.23;;;11.20;64.20;;;;;;5063064;28;20465;-57
2020/12/06 04:16:01;;;;;;;6.90;5.40;;;11.20;64.20;;;;;;5064311;28;20453;-59
2020/12/06 04:18:27;;;;;;;5.27;4.80;;;11.20;64.30;;;;;;5062619;28;20522;-58
2020/12/06 04:20:56;;;;;;;5.30;4.80;;;11.10;64.50;;;;;;5062044;28;20567;-58
2020/12/06 04:23:23;;;;;;;8.53;4.77;;;11.10;64.70;;;;;;5062957;28;20434;-59
2020/12/06 04:25:50;;;;;;;6.93;5.00;;;11.10;64.70;;;;;;5064808;28;20462;-59
2020/12/06 04:28:17;;;;;;;5.60;5.00;;;11.20;64.60;;;;;;5063385;28;20439;-59
2020/12/06 04:30:43;;;;;;;5.20;4.70;;;11.10;64.70;;;;;;5062016;28;20461;-58
2020/12/06 04:33:10;;;;;;;5.33;4.83;;;11.20;64.60;;;;;;5065998;28;20477;-59
2020/12/06 04:35:37;;;;;;;5.43;4.67;;;11.20;64.50;;;;;;5065131;28;20518;-59
2020/12/06 04:38:04;;;;;;;5.73;5.23;;;11.30;64.40;;;;;;5062010;28;20516;-59
2020/12/06 04:40:31;;;;;;;4.90;4.40;;;11.20;64.50;;;;;;5061249;28;20457;-60
2020/12/06 04:42:58;;;;;;;5.40;4.90;;;11.20;64.60;;;;;;5061502;28;20466;-59
2020/12/06 04:45:25;;;;;;;5.57;5.07;;;11.20;64.70;;;;;;5061942;28;20462;-59
2020/12/06 04:47:56;;;;;;;5.50;4.67;;;11.20;64.90;;;;;;5063520;28;20434;-59
2020/12/06 04:50:25;;;;;;;5.70;5.20;;;11.20;64.50;;;;;;5063504;28;20439;-59
2020/12/06 04:52:56;;;;;;;6.47;5.60;;;11.20;64.60;;;;;;5064729;28;20530;-59
2020/12/06 04:55:25;;;;;;;5.13;4.60;;;11.20;64.70;;;;;;5062366;28;20481;-59
2020/12/06 04:57:52;;;;;;;5.50;5.00;;;11.20;64.90;;;;;;5063802;28;20465;-60
2020/12/06 05:00:19;;;;;;;6.43;5.20;;;11.20;64.90;;;;;;5062746;28;20478;-59
2020/12/06 05:02:46;;;;;;;5.93;5.20;;;11.20;64.90;;;;;;5061467;28;20454;-59
2020/12/06 05:05:14;;;;;;;5.30;4.80;;;11.20;64.80;;;;;;5062110;28;20512;-59
2020/12/06 05:07:40;;;;;;;5.40;4.87;;;11.10;64.90;;;;;;5064820;28;20465;-59
2020/12/06 05:10:07;;;;;;;5.77;5.00;;;11.20;64.80;;;;;;5061059;28;20538;-59
2020/12/06 05:12:35;;;;;;;7.80;4.30;;;11.20;64.80;;;;;;5063013;28;20495;-59
2020/12/06 05:15:02;;;;;;;4.93;4.57;;;11.20;64.80;;;;;;5063377;28;20514;-59
2020/12/06 05:17:28;;;;;;;5.33;4.73;;;11.10;65.00;;;;;;5061588;28;20461;-59
2020/12/06 05:19:57;;;;;;;5.80;5.20;;;11.20;64.80;;;;;;5063744;28;20520;-59
2020/12/06 05:22:25;;;;;;;5.00;4.53;;;11.20;64.80;;;;;;5068843;28;20559;-58
2020/12/06 05:24:53;;;;;;;8.53;5.13;;;11.20;64.60;;;;;;5080058;28;20465;-59
2020/12/06 05:27:20;;;;;;;5.80;5.00;;;11.20;64.80;;;;;;5080584;28;20445;-59
2020/12/06 05:29:47;;;;;;;6.00;4.90;;;11.10;65.00;;;;;;5079956;28;20471;-59
2020/12/06 05:32:15;;;;;;;5.30;4.80;;;11.30;64.90;;;;;;5079924;28;20517;-59
2020/12/06 05:34:42;;;;;;;5.10;4.60;;;11.20;64.80;;;;;;5080949;28;20465;-60
2020/12/06 05:37:08;;;;;;;5.40;4.90;;;11.10;65.10;;;;;;5080750;28;20429;-60
2020/12/06 05:39:35;;;;;;;4.97;4.57;;;11.20;65.00;;;;;;5080451;28;20437;-59
2020/12/06 05:42:02;;;;;;;4.80;4.40;;;11.20;64.90;;;;;;5080415;28;20516;-59
2020/12/06 05:44:29;;;;;;;5.13;4.57;;;11.20;65.20;;;;;;5080264;28;20441;-60
2020/12/06 05:46:56;;;;;;;5.07;4.30;;;11.20;65.10;;;;;;5080071;28;20568;-59
2020/12/06 05:49:23;;;;;;;4.70;4.27;;;11.20;65.10;;;;;;5080552;28;20528;-59
2020/12/06 05:51:51;;;;;;;5.20;4.20;;;11.20;65.40;;;;;;5080191;28;20465;-59
2020/12/06 05:54:21;;;;;;;6.23;4.90;;;11.20;65.30;;;;;;5080170;28;20469;-59
2020/12/06 05:56:48;;;;;;;5.47;4.90;;;11.20;65.20;;;;;;5080616;28;20485;-59
2020/12/06 05:59:15;;;;;;;4.43;4.10;;;11.20;65.20;;;;;;5080292;28;20465;-59
2020/12/06 06:01:42;;;;;;;5.10;4.60;;;11.30;65.20;;;;;;5079661;28;20445;-60
2020/12/06 06:04:09;;;;;;;5.23;4.80;;;11.20;65.30;;;;;;5080179;28;20512;-59
2020/12/06 06:06:38;;;;;;;5.40;4.20;;;11.20;65.50;;;;;;5080443;28;20469;-59
2020/12/06 06:09:05;;;;;;;4.57;4.27;;;11.20;65.30;;;;;;5080140;28;20441;-59
2020/12/06 06:11:32;;;;;;;5.00;4.50;;;11.30;65.30;;;;;;5079480;28;20496;-59
2020/12/06 06:13:59;;;;;;;5.80;4.40;;;11.20;65.20;;;;;;5079966;28;20516;-59
2020/12/06 06:16:27;;;;;;;4.20;3.90;;;11.30;65.30;;;;;;5080018;28;20444;-59
2020/12/06 06:18:55;;;;;;;5.60;4.83;;;11.30;65.40;;;;;;5079876;28;20557;-59
2020/12/06 06:21:25;;;;;;;4.80;4.40;;;11.20;65.40;;;;;;5079768;28;20433;-59
2020/12/06 06:23:52;;;;;;;4.50;4.10;;;11.20;65.50;;;;;;5080112;28;20545;-59
2020/12/06 06:26:20;;;;;;;7.33;4.93;;;11.20;66.30;;;;;;5079966;28;20579;-59
2020/12/06 06:28:46;;;;;;;4.27;3.93;;;11.20;65.50;;;;;;5080281;28;20445;-59
2020/12/06 06:31:14;;;;;;;4.77;4.37;;;11.30;65.40;;;;;;5079376;28;20442;-59
2020/12/06 06:33:41;;;;;;;4.37;4.00;;;11.20;65.50;;;;;;5074866;28;20556;-59
2020/12/06 06:36:09;;;;;;;4.60;4.20;;;11.20;65.40;;;;;;5076543;28;20437;-59
2020/12/06 06:38:43;;;;;;;5.97;4.97;;;11.20;65.40;;;;;;5076750;28;20429;-60
2020/12/06 06:41:10;;;;;;;4.37;4.07;;;11.30;65.30;;;;;;5076088;28;20457;-59
2020/12/06 06:43:37;;;;;;;5.07;4.57;;;11.30;65.30;;;;;;5076725;28;20459;-59
2020/12/06 06:46:14;;;;;;;7.20;5.40;;;11.40;65.20;;;;;;5076526;28;20589;-58
2020/12/06 06:48:44;;;;;;;7.30;4.37;;;11.30;65.10;;;;;;5076545;28;20552;-59
2020/12/06 06:51:17;;;;;;;4.50;4.20;;;11.40;65.40;;;;;;5076092;28;20493;-59
2020/12/06 06:53:45;;;;;;;4.30;4.00;;;11.30;65.40;;;;;;5076703;28;20492;-59
2020/12/06 06:56:12;;;;;;;4.07;3.77;;;11.30;65.40;;;;;;5076754;28;20513;-59
2020/12/06 06:58:39;;;;;;;4.63;4.23;;;11.30;65.40;;;;;;5076525;28;20442;-59
2020/12/06 07:01:21;;;;;;;4.80;4.40;;;11.30;65.30;;;;;;5075741;28;20521;-58
2020/12/06 07:03:49;;;;;;;4.50;4.10;;;11.30;65.30;;;;;;5076109;28;20537;-58
2020/12/06 07:06:44;;;;;;;4.37;3.97;;;11.40;65.50;;;;;;5076273;28;20478;-59
2020/12/06 07:09:12;;;;;;;5.47;4.97;;;11.40;65.40;;;;;;5076126;28;20540;-59
2020/12/06 07:11:39;;;;;;;5.23;4.73;;;11.30;65.50;;;;;;5075641;28;20477;-60
2020/12/06 07:14:06;;;;;;;4.90;4.47;;;11.30;65.50;;;;;;5075719;28;20444;-59
2020/12/06 07:16:33;;;;;;;4.37;4.07;;;11.30;65.60;;;;;;5075961;28;20540;-57
2020/12/06 07:19:00;;;;;;;4.77;4.37;;;11.30;65.60;;;;;;5075994;28;20557;-59
2020/12/06 07:21:31;;;;;;;4.60;4.13;;;11.40;65.40;;;;;;5075376;28;20524;-59
2020/12/06 07:23:58;;;;;;;4.53;4.10;;;11.40;65.40;;;;;;5075980;28;20457;-59
2020/12/06 07:26:26;;;;;;;5.53;4.67;;;11.30;65.40;;;;;;5075637;28;20480;-59
2020/12/06 07:28:53;;;;;;;4.70;4.30;;;11.30;65.70;;;;;;5076226;28;20434;-58
2020/12/06 07:31:20;;;;;;;4.43;4.13;;;11.30;65.60;;;;;;5075503;28;20536;-58
2020/12/06 07:33:47;;;;;;;4.60;4.20;;;11.40;65.70;;;;;;5071431;28;20495;-59
2020/12/06 07:36:13;;;;;;;4.80;4.40;;;11.40;65.50;;;;;;5075240;28;20530;-58
2020/12/06 07:38:40;;;;;;;7.13;4.80;;;11.40;65.60;;;;;;5075459;28;20532;-59
2020/12/06 07:41:07;;;;;;;5.00;4.60;;;11.30;65.70;;;;;;5055257;28;20482;-59
2020/12/06 07:43:35;;;;;;;4.50;4.10;;;11.30;65.70;;;;;;5055506;28;20472;-59
2020/12/06 07:46:15;;;;;;;4.67;4.23;;;11.30;65.80;;;;;;5055318;28;20493;-59
2020/12/06 07:48:46;;;;;;;4.63;4.30;;;11.30;65.80;;;;;;5055503;28;20465;-59
2020/12/06 07:51:12;;;;;;;4.60;4.20;;;11.30;65.90;;;;;;5054858;28;20529;-59
2020/12/06 07:53:43;;;;;;;4.93;4.53;;;11.30;65.70;;;;;;5055290;28;20529;-59
2020/12/06 07:56:10;;;;;;;4.07;3.77;;;11.40;65.80;;;;;;5054864;28;20521;-59
2020/12/06 07:58:40;;;;;;;4.67;4.27;;;11.30;66.00;;;;;;5055328;28;20541;-59
2020/12/06 08:01:07;;;;;;;4.53;4.23;;;11.40;65.80;;;;;;5054883;28;20462;-59
2020/12/06 08:03:33;;;;;;;5.57;4.87;;;11.40;65.70;;;;;;5055025;28;20530;-59
2020/12/06 08:06:01;;;;;;;4.73;4.40;;;11.40;65.60;;;;;;5055070;28;20568;-59
2020/12/06 08:08:28;;;;;;;4.63;4.33;;;11.40;65.60;;;;;;5054876;28;20474;-59
2020/12/06 08:10:56;;;;;;;4.90;4.47;;;11.50;65.30;;;;;;5054637;28;20533;-59
2020/12/06 08:13:23;;;;;;;5.13;4.73;;;11.70;64.90;;;;;;5059877;28;20437;-59
2020/12/06 08:15:50;;;;;;;4.50;4.20;;;11.70;64.70;;;;;;5075032;28;20590;-59
2020/12/06 08:18:17;;;;;;;4.90;4.50;;;11.60;64.90;;;;;;5075024;28;20483;-59
2020/12/06 08:20:52;;;;;;;4.53;4.13;;;11.50;65.10;;;;;;5074408;28;20466;-59
2020/12/06 08:23:29;;;;;;;4.10;3.80;;;11.60;65.30;;;;;;5074803;28;20475;-59
2020/12/06 08:25:56;;;;;;;5.17;4.67;;;11.50;65.30;;;;;;5074809;28;20556;-59
2020/12/06 08:28:23;;;;;;;4.80;4.40;;;11.50;65.30;;;;;;5074670;28;20484;-59
2020/12/06 08:30:54;;;;;;;4.40;4.10;;;11.50;65.50;;;;;;5074332;28;20445;-59
2020/12/06 08:33:25;;;;;;;4.03;3.73;;;11.50;65.50;;;;;;5074401;28;20429;-59
2020/12/06 08:35:53;;;;;;;4.67;4.27;;;11.50;65.50;;;;;;5074362;28;20525;-58
2020/12/06 08:38:20;;;;;;;4.80;4.40;;;11.60;65.50;;;;;;5074557;28;20467;-58
2020/12/06 08:41:04;;;;;;;5.57;5.07;;;11.60;65.50;;;;;;5074166;28;20502;-58
2020/12/06 08:43:45;;;;;;;5.20;4.70;;;11.60;65.50;;;;;;5074313;28;20442;-59
2020/12/06 08:46:13;;;;;;;4.47;4.07;;;11.60;66.00;;;;;;5074159;28;20572;-59
2020/12/06 08:48:40;;;;;;;5.80;4.47;;;11.60;65.50;;;;;;5074359;28;20484;-59
2020/12/06 08:51:08;;;;;;;4.47;4.07;;;11.50;65.60;;;;;;5073747;28;20445;-59
2020/12/06 08:53:44;;;;;;;5.07;4.57;;;11.50;65.60;;;;;;5074229;28;20470;-60
2020/12/06 08:56:24;;;;;;;4.80;4.40;;;11.50;65.80;;;;;;5074065;28;20468;-59
2020/12/06 08:58:51;;;;;;;4.40;4.07;;;11.50;66.50;;;;;;5073576;28;20473;-59
2020/12/06 09:01:19;;;;;;;5.27;4.80;;;11.60;65.80;;;;;;5073599;28;20510;-59
2020/12/06 09:03:46;;;;;;;4.73;4.30;;;11.60;65.60;;;;;;5063165;28;20470;-59
2020/12/06 09:06:16;;;;;;;4.23;3.83;;;11.70;65.60;;;;;;5053887;28;20562;-60
2020/12/06 09:08:43;;;;;;;4.13;3.83;;;11.70;65.60;;;;;;5053863;28;20521;-60
2020/12/06 09:11:14;;;;;;;4.10;3.80;;;11.70;65.70;;;;;;5053608;28;20466;-58
2020/12/06 09:13:41;;;;;;;5.67;5.10;;;11.70;65.60;;;;;;5061179;28;20526;-59
2020/12/06 09:16:08;;;;;;;4.70;4.30;;;11.70;65.40;;;;;;5073831;28;20441;-59
2020/12/06 09:18:36;;;;;;;5.30;4.90;;;11.70;65.70;;;;;;5073858;28;20529;-59
2020/12/06 09:21:04;;;;;;;4.73;4.23;;;11.70;65.70;;;;;;5073283;28;20467;-59
2020/12/06 09:23:31;;;;;;;5.20;4.20;;;11.70;65.70;;;;;;5073851;28;20442;-59
2020/12/06 09:26:01;;;;;;;4.47;4.03;;;11.80;65.60;;;;;;5073686;28;20477;-59
2020/12/06 09:28:28;;;;;;;4.87;4.37;;;11.80;65.60;;;;;;5074037;28;20516;-59
2020/12/06 09:30:54;;;;;;;4.20;3.90;;;11.80;65.60;;;;;;5073380;28;20524;-59
2020/12/06 09:33:22;;;;;;;6.27;5.03;;;11.70;65.40;;;;;;5073913;28;20442;-59
2020/12/06 09:35:49;;;;;;;4.90;4.50;;;11.70;65.40;;;;;;5073799;28;20494;-59
2020/12/06 09:38:16;;;;;;;4.90;4.50;;;11.70;65.50;;;;;;5073564;28;20525;-58
2020/12/06 09:40:43;;;;;;;7.80;5.10;;;11.70;65.50;;;;;;5073600;28;20513;-59
2020/12/06 09:43:10;;;;;;;5.37;4.87;;;11.70;65.60;;;;;;5073945;28;20520;-59
2020/12/06 09:45:37;;;;;;;5.30;4.80;;;11.70;66.00;;;;;;5073594;28;20529;-59
2020/12/06 09:48:04;;;;;;;7.17;4.90;;;11.80;65.90;;;;;;5072594;28;20521;-59
2020/12/06 09:50:31;;;;;;;8.80;5.30;;;11.80;66.00;;;;;;5052875;28;20520;-59
2020/12/06 09:52:58;;;;;;;9.10;5.87;;;11.90;66.00;;;;;;5053467;28;20444;-59
2020/12/06 09:55:25;;;;;;;6.27;5.40;;;11.90;66.00;;;;;;5053494;28;20550;-58
2020/12/06 09:57:52;;;;;;;6.60;5.80;;;11.80;66.10;;;;;;5053642;28;20530;-59
2020/12/06 10:00:19;;;;;;;9.90;5.37;;;11.80;66.30;;;;;;5052758;28;20468;-58
2020/12/06 10:02:45;;;;;;;6.97;4.90;;;11.80;66.20;;;;;;5053509;28;20438;-58
2020/12/06 10:05:12;;;;;;;6.07;5.47;;;11.80;66.20;;;;;;5053180;28;20449;-59
2020/12/06 10:07:39;;;;;;;6.03;5.43;;;11.80;65.90;;;;;;5053520;28;20510;-59
2020/12/06 10:10:07;;;;;;;6.00;5.40;;;11.90;65.70;;;;;;5053203;28;20470;-58
2020/12/06 10:12:34;;;;;;;6.10;5.10;;;11.90;65.90;;;;;;5057287;28;20492;-60
2020/12/06 10:15:03;;;;;;;6.60;5.80;;;11.90;65.90;;;;;;5057184;28;20529;-58
2020/12/06 10:17:30;;;;;;;6.47;5.20;;;11.90;65.80;;;;;;5057038;28;20430;-62
2020/12/06 10:19:57;;;;;;;7.27;6.30;;;11.90;65.90;;;;;;5056143;28;20546;-63
2020/12/06 10:22:24;;;;;;;12.33;5.90;;;11.90;66.20;;;;;;5076051;28;20497;-63
2020/12/06 10:25:03;;;;;;;6.07;5.47;;;11.90;66.00;;;;;;5076931;28;20520;-64
2020/12/06 10:27:31;;;;;;;5.80;5.20;;;11.90;66.10;;;;;;5076907;28;20519;-64
2020/12/06 10:29:58;;;;;;;6.83;5.93;;;11.90;66.50;;;;;;5076097;28;20469;-63
2020/12/06 10:32:25;;;;;;;7.90;5.67;;;12.10;66.30;;;;;;5076458;28;20457;-63
2020/12/06 10:34:52;;;;;;;5.70;5.20;;;12.00;66.40;;;;;;5077094;28;20434;-64
2020/12/06 10:37:20;;;;;;;7.30;5.73;;;11.90;66.50;;;;;;5077001;28;20528;-69
2020/12/06 10:39:47;;;;;;;6.03;5.43;;;12.00;66.80;;;;;;5075920;28;20449;-66
2020/12/06 10:42:14;;;;;;;8.40;6.20;;;12.00;66.70;;;;;;5074882;28;20461;-69
2020/12/06 10:44:41;;;;;;;6.83;6.20;;;12.10;66.10;;;;;;5069118;28;20505;-67
2020/12/06 10:47:08;;;;;;;7.70;5.90;;;12.20;65.80;;;;;;5083026;28;20492;-67
2020/12/06 10:49:41;;;;;;;8.47;5.50;;;12.20;65.70;;;;;;5076685;28;20440;-67
2020/12/06 10:52:08;;;;;;;8.33;5.93;;;12.10;66.30;;;;;;5076500;28;20434;-68
2020/12/06 10:54:35;;;;;;;7.77;6.20;;;12.10;66.50;;;;;;5076480;28;20465;-63
2020/12/06 10:57:02;;;;;;;11.70;6.80;;;12.10;66.50;;;;;;5076531;28;20466;-62
2020/12/06 10:59:29;;;;;;;8.53;6.00;;;12.00;67.00;;;;;;5075939;28;20465;-65
2020/12/06 11:01:58;;;;;;;7.13;5.77;;;12.00;67.10;;;;;;5076022;28;20442;-65
2020/12/06 11:04:25;;;;;;;8.73;6.63;;;12.10;66.90;;;;;;5075976;28;20437;-66
2020/12/06 11:06:52;;;;;;;7.90;6.70;;;12.10;66.80;;;;;;5076143;28;20476;-64
2020/12/06 11:09:18;;;;;;;9.40;6.53;;;12.10;67.10;;;;;;5076146;28;20438;-64
2020/12/06 11:11:48;;;;;;;6.90;6.13;;;12.00;67.10;;;;;;5075460;28;20456;-68
2020/12/06 11:14:15;;;;;;;8.47;6.00;;;12.10;66.90;;;;;;5063874;28;20522;-67
2020/12/06 11:16:42;;;;;;;9.13;6.27;;;12.10;66.90;;;;;;5067039;28;20477;-69
2020/12/06 11:19:11;;;;;;;10.27;5.50;;;12.10;67.10;;;;;;5075751;28;20525;-63
2020/12/06 11:21:37;;;;;;;8.80;5.80;;;12.10;67.10;;;;;;5074838;28;20429;-63
2020/12/06 11:24:05;;;;;;;8.67;6.70;;;12.10;67.10;;;;;;5075734;28;20448;-66
2020/12/06 11:26:32;;;;;;;8.33;6.60;;;12.00;67.00;;;;;;5075459;28;20473;-67
2020/12/06 11:28:59;;;;;;;7.70;6.00;;;12.20;67.40;;;;;;5075683;28;20503;-67
2020/12/06 11:31:26;;;;;;;8.17;6.20;;;12.20;67.30;;;;;;5075181;28;20501;-74
2020/12/06 11:33:53;;;;;;;8.13;6.10;;;12.20;67.50;;;;;;5075607;28;20437;-67
2020/12/06 11:36:21;;;;;;;10.20;6.90;;;12.20;67.80;;;;;;5075359;28;20430;-72
2020/12/06 11:38:47;;;;;;;9.40;6.53;;;12.30;67.60;;;;;;5075353;28;20521;-68
2020/12/06 11:41:14;;;;;;;13.40;6.70;;;12.30;67.60;;;;;;5074698;28;20533;-66
2020/12/06 11:43:41;;;;;;;10.10;6.30;;;12.30;67.70;;;;;;5070097;28;20461;-66
2020/12/06 11:46:08;;;;;;;9.13;6.57;;;12.30;67.60;;;;;;5074999;28;20491;-64
2020/12/06 11:48:34;;;;;;;8.27;6.40;;;12.30;67.80;;;;;;5075425;28;20521;-62
2020/12/06 11:51:04;;;;;;;7.40;5.83;;;12.30;67.70;;;;;;5074721;28;20426;-68
2020/12/06 11:53:31;;;;;;;7.07;6.13;;;12.30;67.50;;;;;;5074043;28;20433;-65
2020/12/06 11:55:58;;;;;;;12.80;6.37;;;12.30;67.70;;;;;;5074095;28;20465;-64
2020/12/06 11:58:25;;;;;;;8.10;6.20;;;12.30;67.70;;;;;;5074015;28;20434;-62
2020/12/06 12:00:52;;;;;;;9.10;6.10;;;12.30;67.60;;;;;;5073430;28;20536;-63
2020/12/06 12:03:19;;;;;;;9.07;6.77;;;12.40;67.50;;;;;;5074109;28;20438;-69
2020/12/06 12:05:46;;;;;;;11.90;7.27;;;12.40;67.60;;;;;;5073727;28;20521;-66
2020/12/06 12:08:13;;;;;;;7.90;6.17;;;12.40;67.60;;;;;;5073868;28;20474;-66
2020/12/06 12:10:40;;;;;;;7.90;6.57;;;12.40;67.60;;;;;;5073344;28;20472;-65
2020/12/06 12:13:07;;;;;;;8.67;7.30;;;12.40;67.50;;;;;;5070966;28;20507;-65
2020/12/06 12:15:34;;;;;;;8.00;6.63;;;12.40;67.60;;;;;;5053977;28;20533;-64
2020/12/06 12:18:02;;;;;;;9.67;6.23;;;12.50;67.50;;;;;;5054331;28;20435;-68
2020/12/06 12:20:28;;;;;;;8.30;5.90;;;12.40;67.70;;;;;;5054185;28;20470;-67
2020/12/06 12:22:56;;;;;;;8.53;6.03;;;12.40;67.70;;;;;;5054573;28;20458;-67
2020/12/06 12:25:23;;;;;;;10.90;6.60;;;12.50;67.50;;;;;;5058894;28;20481;-62
2020/12/06 12:27:50;;;;;;;8.33;6.60;;;12.50;67.80;;;;;;5073378;28;20632;-68
2020/12/06 12:30:17;;;;;;;8.03;6.97;;;12.50;67.80;;;;;;5058451;28;20446;-67
2020/12/06 12:32:44;;;;;;;10.00;7.10;;;12.50;67.90;;;;;;5054044;28;20478;-65
2020/12/06 12:35:11;;;;;;;10.77;7.50;;;12.50;68.00;;;;;;5054573;28;20447;-65
2020/12/06 12:37:37;;;;;;;9.10;6.50;;;12.50;67.80;;;;;;5054169;28;20521;-66
2020/12/06 12:40:04;;;;;;;9.50;6.83;;;12.50;67.90;;;;;;5053652;28;20484;-64
2020/12/06 12:42:31;;;;;;;7.47;6.47;;;12.60;67.70;;;;;;5054342;28;20522;-68
2020/12/06 12:44:59;;;;;;;9.40;6.47;;;12.50;67.80;;;;;;5054214;28;20486;-70
2020/12/06 12:47:26;;;;;;;11.17;6.37;;;12.50;68.90;;;;;;5054120;28;20559;-66